Time;durP1;ratioP1;P1;durP2;ratioP2;P2;SDS_P1;SDS_P2;PMS_P1;PMS_P2;Temp;Humidity;BMP_temperature;BMP_pressure;BME280_temperature;BME280_humidity;BME280_pressure;Samples;Min_cycle;Max_cycle;Signal;HPM_P1;HPM_P2
2023/04/04 00:00:33;;;;;;;0.60;0.60;;;;;;;7.16;90.02;99069.88;4952415;29;20051;-82
2023/04/04 00:03:00;;;;;;;0.60;0.60;;;;;;;7.13;89.90;99070.34;4953687;29;20047;-82
2023/04/04 00:05:27;;;;;;;0.60;0.60;;;;;;;7.15;90.01;99079.00;4937224;29;20510;-83
2023/04/04 00:07:54;;;;;;;0.60;0.60;;;;;;;7.14;89.73;99077.31;4937404;29;20110;-83
2023/04/04 00:10:22;;;;;;;0.60;0.60;;;;;;;7.12;89.76;99066.84;4939356;29;20043;-83
2023/04/04 00:12:49;;;;;;;0.60;0.60;;;;;;;7.14;89.65;99075.50;4935925;29;20062;-83
2023/04/04 00:15:16;;;;;;;0.52;0.52;;;;;;;7.18;89.68;99075.03;4935655;29;20071;-83
2023/04/04 00:17:42;;;;;;;0.60;0.60;;;;;;;7.16;89.56;99067.19;4934448;29;20054;-84
2023/04/04 00:20:10;;;;;;;0.60;0.60;;;;;;;7.19;89.23;99069.47;4901295;29;20147;-82
2023/04/04 00:22:37;;;;;;;0.60;0.60;;;;;;;7.20;88.95;99073.78;4916544;29;20051;-83
2023/04/04 00:25:04;;;;;;;0.52;0.52;;;;;;;7.26;88.80;99072.06;4933302;29;20110;-83
2023/04/04 00:27:31;;;;;;;0.60;0.60;;;;;;;7.23;88.33;99064.47;4933522;29;20598;-84
2023/04/04 00:29:58;;;;;;;0.60;0.60;;;;;;;7.26;88.26;99075.56;4933317;29;20048;-83
2023/04/04 00:32:26;;;;;;;0.57;0.57;;;;;;;7.27;87.93;99074.53;4933340;29;20531;-84
2023/04/04 00:34:53;;;;;;;0.60;0.60;;;;;;;7.24;87.97;99064.25;4933316;29;20453;-82
2023/04/04 00:37:20;;;;;;;0.60;0.60;;;;;;;7.23;87.90;99069.84;4915970;29;20052;-83
2023/04/04 00:39:48;;;;;;;0.55;0.55;;;;;;;7.21;87.92;99063.84;4900697;29;20063;-84
2023/04/04 00:42:16;;;;;;;0.60;0.60;;;;;;;7.16;87.96;99059.16;4933232;29;20099;-83
2023/04/04 00:44:43;;;;;;;0.57;0.57;;;;;;;7.15;87.88;99061.00;4919552;29;20533;-83
2023/04/04 00:47:11;;;;;;;0.50;0.50;;;;;;;7.11;88.20;99064.34;4935082;29;20082;-82
2023/04/04 00:49:38;;;;;;;0.60;0.60;;;;;;;7.09;88.49;99067.28;4952308;29;20043;-83
2023/04/04 00:52:31;;;;;;;0.60;0.60;;;;;;;7.11;88.71;99067.84;4952040;29;20415;-83
2023/04/04 00:54:59;;;;;;;0.60;0.60;;;;;;;7.06;88.62;99064.19;4919851;28;20142;-82
2023/04/04 00:57:28;;;;;;;0.60;0.60;;;;;;;7.04;88.79;99063.59;4955697;29;20079;-82
2023/04/04 00:59:57;;;;;;;0.60;0.60;;;;;;;7.05;88.42;99063.38;4941203;29;20059;-82
2023/04/04 01:02:25;;;;;;;0.60;0.60;;;;;;;7.05;88.93;99065.25;4943329;29;20057;-82
2023/04/04 01:04:53;;;;;;;0.60;0.60;;;;;;;7.06;88.88;99066.88;4912574;29;20085;-82
2023/04/04 01:07:20;;;;;;;0.60;0.60;;;;;;;7.06;88.69;99064.19;4960879;29;20058;-82
2023/04/04 01:09:48;;;;;;;0.60;0.60;;;;;;;7.03;88.78;99053.91;4936678;29;20048;-83
2023/04/04 01:12:15;;;;;;;0.60;0.60;;;;;;;7.01;88.69;99056.81;4937729;29;20048;-82
2023/04/04 01:14:43;;;;;;;0.60;0.60;;;;;;;7.03;88.86;99059.28;4886418;29;20060;-83
2023/04/04 01:17:10;;;;;;;0.60;0.60;;;;;;;7.02;88.75;99061.16;4918691;29;20044;-83
2023/04/04 01:19:43;;;;;;;0.60;0.60;;;;;;;6.99;88.66;99061.59;4917670;29;20052;-82
2023/04/04 01:22:15;;;;;;;0.60;0.60;;;;;;;6.93;88.84;99060.59;4886269;29;20044;-82
2023/04/04 01:24:44;;;;;;;0.50;0.50;;;;;;;6.91;89.16;99061.84;4885557;29;20048;-82
2023/04/04 01:27:12;;;;;;;0.60;0.60;;;;;;;6.87;89.26;99069.53;4884911;29;20131;-82
2023/04/04 01:29:44;;;;;;;0.70;0.70;;;;;;;6.79;89.34;99053.72;4901302;29;20450;-81
2023/04/04 01:32:19;;;;;;;0.60;0.60;;;;;;;6.75;89.60;99057.03;4900747;29;20048;-81
2023/04/04 01:35:08;;;;;;;0.60;0.60;;;;;;;6.69;89.82;99056.88;4900845;29;20504;-83
2023/04/04 01:37:45;;;;;;;0.60;0.60;;;;;;;6.62;89.77;99061.44;4886685;29;20108;-82
2023/04/04 01:40:20;;;;;;;0.60;0.60;;;;;;;6.58;90.04;99062.91;4880168;29;20119;-81
2023/04/04 01:42:50;;;;;;;0.60;0.60;;;;;;;6.49;90.05;99048.97;4884916;29;20115;-82
2023/04/04 01:45:24;;;;;;;0.60;0.60;;;;;;;6.46;90.51;99052.09;4899716;29;20472;-83
2023/04/04 01:47:52;;;;;;;0.60;0.60;;;;;;;6.48;90.62;99060.75;4900182;29;20056;-82
2023/04/04 01:50:23;;;;;;;0.60;0.60;;;;;;;6.44;90.52;99056.84;4899448;29;20048;-83
2023/04/04 01:52:50;;;;;;;0.60;0.60;;;;;;;6.43;90.86;99057.03;4884178;29;20052;-82
2023/04/04 01:55:20;;;;;;;0.60;0.60;;;;;;;6.43;91.00;99055.22;4899552;29;20568;-82
2023/04/04 01:57:47;;;;;;;0.60;0.60;;;;;;;6.44;91.07;99056.03;4899651;29;20052;-82
2023/04/04 02:00:15;;;;;;;0.60;0.60;;;;;;;6.45;91.09;99061.16;4899120;29;20431;-83
2023/04/04 02:02:42;;;;;;;0.65;0.65;;;;;;;6.44;91.30;99047.97;4915893;29;20040;-83
2023/04/04 02:05:10;;;;;;;0.50;0.50;;;;;;;6.45;91.19;99052.28;4899046;29;20048;-83
2023/04/04 02:07:37;;;;;;;0.60;0.60;;;;;;;6.45;91.33;99053.09;4930683;29;20047;-82
2023/04/04 02:10:13;;;;;;;0.60;0.60;;;;;;;6.42;91.42;99042.00;4917721;29;20138;-82
2023/04/04 02:12:40;;;;;;;0.60;0.60;;;;;;;6.44;91.44;99048.78;4935338;29;20048;-82
2023/04/04 02:15:08;;;;;;;0.60;0.60;;;;;;;6.43;91.33;99046.31;4917649;29;20051;-82
2023/04/04 02:17:35;;;;;;;0.60;0.60;;;;;;;6.42;91.44;99048.19;4902677;29;20070;-83
2023/04/04 02:20:02;;;;;;;0.60;0.60;;;;;;;6.40;91.57;99050.25;4917676;29;20051;-83
2023/04/04 02:22:32;;;;;;;0.70;0.70;;;;;;;6.39;91.54;99050.50;4902395;29;20051;-82
2023/04/04 02:25:04;;;;;;;0.70;0.70;;;;;;;6.27;91.55;99035.06;4934606;29;20067;-83
2023/04/04 02:27:31;;;;;;;0.70;0.70;;;;;;;6.37;91.52;99050.69;4911254;29;20124;-84
2023/04/04 02:30:01;;;;;;;0.65;0.65;;;;;;;6.34;91.36;99047.63;4915982;29;20058;-84
2023/04/04 02:32:29;;;;;;;0.60;0.60;;;;;;;6.29;91.49;99048.28;4842539;29;20053;-83
2023/04/04 02:34:56;;;;;;;0.60;0.60;;;;;;;6.34;91.46;99050.31;4843083;29;20089;-85
2023/04/04 02:37:23;;;;;;;0.60;0.60;;;;;;;6.35;91.25;99051.94;4843013;29;20057;-82
2023/04/04 02:39:52;;;;;;;0.60;0.60;;;;;;;6.34;91.48;99056.50;4843378;29;20072;-84
2023/04/04 02:42:20;;;;;;;0.63;0.63;;;;;;;6.33;91.73;99056.69;4842006;29;20058;-84
2023/04/04 02:44:47;;;;;;;0.70;0.70;;;;;;;6.34;91.48;99059.16;4841776;29;20056;-84
2023/04/04 02:47:16;;;;;;;0.70;0.70;;;;;;;6.33;91.58;99065.59;4841603;29;20474;-83
2023/04/04 02:49:44;;;;;;;0.60;0.60;;;;;;;6.35;91.56;99068.84;4841669;29;20514;-83
2023/04/04 02:52:12;;;;;;;0.70;0.70;;;;;;;6.37;91.40;99066.78;4841162;29;20083;-83
2023/04/04 02:54:43;;;;;;;0.60;0.60;;;;;;;6.42;91.30;99074.19;4841648;29;20143;-83
2023/04/04 02:57:16;;;;;;;0.68;0.68;;;;;;;6.43;91.09;99073.97;4859537;29;20067;-83
2023/04/04 02:59:43;;;;;;;0.70;0.70;;;;;;;6.44;91.02;99062.19;4860782;29;20084;-83
2023/04/04 03:02:10;;;;;;;0.60;0.60;;;;;;;6.47;91.05;99061.75;4860824;29;20081;-84
2023/04/04 03:04:38;;;;;;;0.60;0.60;;;;;;;6.49;90.79;99064.22;4913073;29;20052;-84
2023/04/04 03:07:05;;;;;;;0.60;0.60;;;;;;;6.50;90.61;99064.00;4900496;29;20047;-83
2023/04/04 03:09:32;;;;;;;0.60;0.60;;;;;;;6.53;90.25;99057.38;4880848;29;20535;-84
2023/04/04 03:12:00;;;;;;;0.60;0.60;;;;;;;6.51;90.20;99060.31;4880631;29;20104;-83
2023/04/04 03:14:28;;;;;;;0.70;0.70;;;;;;;6.55;90.27;99063.34;4893330;29;20079;-83
2023/04/04 03:16:56;;;;;;;0.60;0.60;;;;;;;6.58;89.91;99056.75;4860691;29;20078;-83
2023/04/04 03:19:24;;;;;;;0.60;0.60;;;;;;;6.56;90.09;99061.50;4859948;29;20057;-83
2023/04/04 03:21:52;;;;;;;0.60;0.60;;;;;;;6.57;89.90;99061.28;4875944;29;20063;-84
2023/04/04 03:24:19;;;;;;;0.60;0.60;;;;;;;6.51;89.75;99054.13;4860659;29;20053;-83
2023/04/04 03:26:46;;;;;;;0.60;0.60;;;;;;;6.49;89.97;99065.06;4860283;29;20071;-82
2023/04/04 03:29:13;;;;;;;0.70;0.70;;;;;;;6.51;90.23;99067.53;4876991;29;20049;-84
2023/04/04 03:31:40;;;;;;;0.60;0.60;;;;;;;6.54;89.98;99063.59;4882067;29;20187;-84
2023/04/04 03:34:08;;;;;;;0.60;0.60;;;;;;;6.55;90.04;99062.53;4895082;29;20049;-84
2023/04/04 03:36:35;;;;;;;0.60;0.60;;;;;;;6.53;89.87;99069.97;4881274;29;20056;-83
2023/04/04 03:39:02;;;;;;;0.70;0.70;;;;;;;6.57;89.89;99072.00;4895526;29;20056;-84
2023/04/04 03:41:29;;;;;;;0.60;0.60;;;;;;;6.59;89.85;99064.56;4878938;29;20084;-83
2023/04/04 03:43:56;;;;;;;0.60;0.60;;;;;;;6.59;89.56;99069.13;4863878;29;20083;-84
2023/04/04 03:46:24;;;;;;;0.60;0.60;;;;;;;6.61;89.52;99075.06;4863889;29;20053;-85
2023/04/04 03:48:51;;;;;;;0.60;0.60;;;;;;;6.58;89.60;99067.47;4902240;29;20048;-83
2023/04/04 03:51:26;;;;;;;0.70;0.70;;;;;;;6.62;89.69;99064.13;4898330;29;20056;-85
2023/04/04 03:53:53;;;;;;;0.60;0.60;;;;;;;6.64;89.38;99066.63;4878697;29;20057;-85
2023/04/04 03:56:20;;;;;;;0.60;0.60;;;;;;;6.64;89.10;99070.09;4895079;29;20444;-84
2023/04/04 03:58:47;;;;;;;0.60;0.60;;;;;;;6.67;89.03;99068.84;4863364;29;20428;-84
2023/04/04 04:01:19;;;;;;;0.60;0.60;;;;;;;6.71;88.74;99072.75;4857695;29;20079;-84
2023/04/04 04:03:46;;;;;;;0.60;0.60;;;;;;;6.73;88.81;99067.97;4883923;29;20056;-85
2023/04/04 04:06:13;;;;;;;0.60;0.60;;;;;;;6.75;88.91;99063.22;4883560;29;20512;-86
2023/04/04 04:08:40;;;;;;;0.70;0.70;;;;;;;6.78;88.74;99056.59;4877633;29;20064;-85
2023/04/04 04:11:08;;;;;;;0.70;0.70;;;;;;;6.83;88.49;99065.63;4890775;29;20064;-84
2023/04/04 04:13:46;;;;;;;0.70;0.70;;;;;;;6.81;88.69;99058.84;4878408;29;20044;-86
2023/04/04 04:16:17;;;;;;;0.60;0.60;;;;;;;6.88;88.35;99059.59;4858535;29;20504;-85
2023/04/04 04:18:46;;;;;;;0.70;0.70;;;;;;;6.92;88.29;99069.69;4875537;29;20060;-85
2023/04/04 04:21:20;;;;;;;0.60;0.60;;;;;;;6.88;87.56;99063.09;4860060;29;20431;-86
2023/04/04 04:23:48;;;;;;;0.60;0.60;;;;;;;6.98;87.35;99067.16;4877455;29;20057;-86
2023/04/04 04:26:15;;;;;;;0.65;0.65;;;;;;;7.00;87.09;99067.78;4870494;29;20140;-85
2023/04/04 04:28:44;;;;;;;0.60;0.60;;;;;;;6.99;86.98;99072.31;4874205;29;20070;-85
2023/04/04 04:31:15;;;;;;;0.60;0.60;;;;;;;6.99;86.74;99068.78;4875730;29;20044;-86
2023/04/04 04:33:47;;;;;;;0.60;0.60;;;;;;;6.93;86.75;99057.91;4880235;29;20513;-84
2023/04/04 04:36:18;;;;;;;0.60;0.60;;;;;;;7.07;86.53;99068.53;4877237;29;20119;-84
2023/04/04 04:38:52;;;;;;;0.60;0.60;;;;;;;7.14;86.49;99085.38;4877406;29;20052;-83
2023/04/04 04:41:24;;;;;;;0.60;0.60;;;;;;;7.18;86.14;99072.34;4879303;29;20067;-84
2023/04/04 04:44:01;;;;;;;0.65;0.65;;;;;;;7.21;85.71;99074.59;4881861;29;20104;-83
2023/04/04 04:46:34;;;;;;;0.60;0.60;;;;;;;7.27;85.22;99061.13;4897401;29;20076;-86
2023/04/04 04:49:07;;;;;;;0.60;0.60;;;;;;;7.29;84.06;99075.16;4882167;29;20080;-85
2023/04/04 04:51:34;;;;;;;0.60;0.60;;;;;;;7.34;83.81;99086.03;4865856;29;20108;-83
2023/04/04 04:54:04;;;;;;;0.70;0.70;;;;;;;7.42;83.78;99084.09;4878924;29;20057;-80
2023/04/04 04:56:32;;;;;;;0.70;0.70;;;;;;;7.50;83.93;99081.13;4882164;29;20588;-83
2023/04/04 04:59:07;;;;;;;0.60;0.60;;;;;;;7.54;83.51;99075.06;4864746;29;20531;-83
2023/04/04 05:01:38;;;;;;;0.60;0.60;;;;;;;7.70;83.26;99084.44;4878729;29;20056;-83
2023/04/04 05:04:05;;;;;;;0.60;0.60;;;;;;;7.67;83.09;99055.34;4879432;29;20076;-83
2023/04/04 05:06:42;;;;;;;0.63;0.63;;;;;;;7.86;82.45;99080.31;4854893;29;20056;-83
2023/04/04 05:09:11;;;;;;;0.65;0.65;;;;;;;7.91;82.38;99066.22;4863251;29;20449;-83
2023/04/04 05:11:38;;;;;;;0.68;0.68;;;;;;;7.99;82.09;99065.91;4878457;29;20480;-83
2023/04/04 05:14:09;;;;;;;0.60;0.60;;;;;;;8.04;81.89;99055.28;4877669;29;20576;-82
2023/04/04 05:16:45;;;;;;;0.60;0.60;;;;;;;8.14;81.42;99062.81;4848066;29;20449;-81
2023/04/04 05:19:15;;;;;;;0.70;0.70;;;;;;;8.24;81.04;99058.53;4862363;29;20064;-84
2023/04/04 05:21:49;;;;;;;0.70;0.70;;;;;;;8.44;80.71;99063.66;4847809;29;20061;-85
2023/04/04 05:24:27;;;;;;;0.60;0.60;;;;;;;8.54;79.66;99051.53;4877999;29;20053;-83
2023/04/04 05:26:55;;;;;;;0.70;0.70;;;;;;;8.65;79.48;99056.91;4846993;29;20144;-84
2023/04/04 05:29:22;;;;;;;0.60;0.60;;;;;;;8.57;78.68;99064.50;4878856;29;20052;-84
2023/04/04 05:31:50;;;;;;;0.60;0.60;;;;;;;8.37;78.90;99060.19;4890668;29;20699;-83
2023/04/04 05:34:21;;;;;;;0.70;0.70;;;;;;;8.28;78.86;99072.34;4914816;29;20519;-83
2023/04/04 05:36:49;;;;;;;0.60;0.60;;;;;;;8.38;79.12;99074.47;4916499;29;20067;-83
2023/04/04 05:39:16;;;;;;;0.70;0.70;;;;;;;8.46;78.60;99053.50;4916001;29;20048;-83
2023/04/04 05:41:55;;;;;;;0.60;0.60;;;;;;;8.57;77.87;99059.94;4898519;29;20052;-84
2023/04/04 05:44:27;;;;;;;0.60;0.60;;;;;;;8.66;77.73;99063.16;4915235;29;20052;-84
2023/04/04 05:46:55;;;;;;;0.60;0.60;;;;;;;8.70;77.63;99061.63;4899077;29;20468;-83
2023/04/04 05:49:22;;;;;;;0.70;0.70;;;;;;;8.62;77.64;99062.78;4915598;29;20052;-83
2023/04/04 05:51:56;;;;;;;0.68;0.68;;;;;;;8.51;77.77;99060.88;4869950;29;20816;-83
2023/04/04 05:54:29;;;;;;;0.60;0.60;;;;;;;8.34;78.09;99051.78;4899879;29;20428;-83
2023/04/04 05:57:01;;;;;;;0.60;0.60;;;;;;;8.31;78.25;99063.00;4881606;29;20056;-84
2023/04/04 05:59:44;;;;;;;0.70;0.70;;;;;;;8.23;78.13;99056.91;4885666;29;20057;-83
2023/04/04 06:02:14;;;;;;;0.70;0.70;;;;;;;8.18;78.21;99055.94;4896219;29;20519;-84
2023/04/04 06:04:47;;;;;;;0.70;0.70;;;;;;;8.19;78.33;99055.69;4881830;29;20052;-83
2023/04/04 06:07:21;;;;;;;0.70;0.70;;;;;;;8.30;78.06;99064.03;4896359;29;20057;-84
2023/04/04 06:09:49;;;;;;;0.65;0.65;;;;;;;8.42;77.79;99056.88;4898130;29;20083;-83
2023/04/04 06:12:17;;;;;;;0.60;0.60;;;;;;;8.48;77.25;99053.25;4897837;29;20535;-83
2023/04/04 06:14:45;;;;;;;0.70;0.70;;;;;;;8.65;76.87;99070.38;4880513;29;20049;-81
2023/04/04 06:17:14;;;;;;;0.70;0.70;;;;;;;8.80;76.46;99058.38;4880581;29;20531;-84
2023/04/04 06:19:41;;;;;;;0.60;0.60;;;;;;;8.96;76.06;99071.13;4901770;29;20056;-83
2023/04/04 06:22:08;;;;;;;0.60;0.60;;;;;;;9.08;75.46;99061.19;4896394;29;20085;-84
2023/04/04 06:24:38;;;;;;;0.70;0.70;;;;;;;9.18;75.45;99071.38;4880217;29;20045;-83
2023/04/04 06:27:05;;;;;;;0.70;0.70;;;;;;;9.29;74.86;99061.66;4875291;29;20057;-81
2023/04/04 06:29:34;;;;;;;0.70;0.70;;;;;;;9.39;74.73;99063.78;4876686;29;20059;-85
2023/04/04 06:32:04;;;;;;;0.60;0.60;;;;;;;9.50;74.13;99049.50;4876952;29;20128;-86
2023/04/04 06:34:37;;;;;;;0.60;0.60;;;;;;;9.63;73.74;99061.88;4861941;29;20520;-84
2023/04/04 06:45:34;;;;;;;0.70;0.70;;;;;;;9.99;72.07;99056.16;4793080;29;20062;-85
2023/04/04 06:48:02;;;;;;;0.60;0.60;;;;;;;10.17;71.53;99073.22;4802560;29;20051;-83
2023/04/04 06:50:32;;;;;;;0.60;0.60;;;;;;;10.28;70.67;99075.09;4799434;29;20130;-84
2023/04/04 06:53:06;;;;;;;0.60;0.60;;;;;;;10.51;70.13;99076.06;4799089;29;20088;-85
2023/04/04 06:55:33;;;;;;;0.60;0.60;;;;;;;10.51;69.51;99068.78;4775311;30;20511;-84
2023/04/04 06:58:01;;;;;;;0.70;0.70;;;;;;;10.65;69.67;99068.47;4791562;29;20055;-85
2023/04/04 07:00:31;;;;;;;0.60;0.60;;;;;;;10.78;69.22;99068.97;4804437;29;20150;-84
2023/04/04 07:03:00;;;;;;;0.60;0.60;;;;;;;10.85;68.44;99058.81;4791202;29;20059;-84
2023/04/04 07:05:28;;;;;;;0.60;0.60;;;;;;;11.00;68.11;99065.53;4799976;29;20051;-84
2023/04/04 07:07:56;;;;;;;0.70;0.70;;;;;;;11.17;67.50;99066.38;4787101;29;20058;-84
2023/04/04 07:10:24;;;;;;;0.60;0.60;;;;;;;11.22;66.45;99073.72;4839182;29;20089;-83
2023/04/04 07:12:51;;;;;;;0.60;0.60;;;;;;;11.27;65.85;99073.81;4835854;29;20053;-83
2023/04/04 07:15:19;;;;;;;0.60;0.60;;;;;;;11.41;65.11;99066.16;4835109;29;20049;-85
2023/04/04 07:17:46;;;;;;;0.70;0.70;;;;;;;11.48;64.69;99064.91;4868718;29;20051;-80
2023/04/04 07:20:14;;;;;;;0.60;0.60;;;;;;;11.74;63.94;99077.97;4912515;29;20535;-84
2023/04/04 07:22:43;;;;;;;0.60;0.60;;;;;;;11.82;63.06;99080.22;4911164;29;20052;-85
2023/04/04 07:25:12;;;;;;;0.60;0.60;;;;;;;11.80;61.88;99075.09;4892658;29;20049;-83
2023/04/04 07:27:40;;;;;;;0.60;0.60;;;;;;;11.84;60.60;99053.75;4900466;29;20152;-85
2023/04/04 07:30:08;;;;;;;0.55;0.55;;;;;;;11.99;60.23;99075.63;4904235;29;20090;-83
2023/04/04 07:32:37;;;;;;;0.60;0.60;;;;;;;11.96;59.60;99078.81;4912399;29;20056;-82
2023/04/04 07:35:05;;;;;;;0.60;0.60;;;;;;;12.19;59.16;99071.53;4895324;29;20056;-84
2023/04/04 07:37:37;;;;;;;0.70;0.70;;;;;;;12.59;58.80;99071.13;4908908;29;20469;-83
2023/04/04 07:40:07;;;;;;;0.70;0.70;;;;;;;12.84;57.56;99059.72;4907235;29;20511;-83
2023/04/04 07:42:34;;;;;;;0.80;0.80;;;;;;;13.21;56.68;99058.91;4900237;29;20504;-84
2023/04/04 07:45:05;;;;;;;0.70;0.70;;;;;;;13.58;55.46;99077.09;4894612;29;20801;-85
2023/04/04 07:47:32;;;;;;;0.80;0.80;;;;;;;14.12;54.49;99071.34;4896746;29;20480;-83
2023/04/04 07:50:00;;;;;;;0.70;0.70;;;;;;;14.45;53.11;99082.84;4913382;29;20151;-84
2023/04/04 07:52:29;;;;;;;0.60;0.60;;;;;;;14.39;51.06;99081.22;4896988;29;20051;-85
2023/04/04 07:54:59;;;;;;;0.60;0.60;;;;;;;14.02;52.13;99071.31;4896319;29;20058;-84
2023/04/04 07:57:26;;;;;;;0.60;0.60;;;;;;;13.78;52.27;99060.91;4896671;29;20051;-84
2023/04/04 07:59:54;;;;;;;0.50;0.50;;;;;;;13.65;52.17;99077.66;4914111;29;20048;-84
2023/04/04 08:02:21;;;;;;;0.60;0.60;;;;;;;13.77;51.80;99074.72;4881940;29;20496;-84
2023/04/04 08:04:48;;;;;;;0.50;0.50;;;;;;;14.02;51.61;99068.59;4914633;29;20516;-85
2023/04/04 08:07:17;;;;;;;0.60;0.60;;;;;;;14.31;50.80;99075.22;4910841;29;20127;-84
2023/04/04 08:09:48;;;;;;;0.70;0.70;;;;;;;14.38;50.20;99074.13;4913344;29;20048;-83
2023/04/04 08:12:18;;;;;;;0.60;0.60;;;;;;;14.59;49.86;99075.88;4914063;29;20500;-83
2023/04/04 08:14:46;;;;;;;0.60;0.60;;;;;;;14.48;49.41;99063.31;4897329;29;20075;-84
2023/04/04 08:17:17;;;;;;;0.70;0.70;;;;;;;14.61;49.97;99078.28;4914033;29;20772;-85
2023/04/04 08:20:13;;;;;;;0.80;0.80;;;;;;;15.28;47.81;99065.56;4900721;29;20054;-85
2023/04/04 08:23:00;;;;;;;0.60;0.60;;;;;;;15.43;47.02;99072.88;4896959;29;20079;-83
2023/04/04 08:25:31;;;;;;;0.52;0.52;;;;;;;15.26;48.11;99084.03;4898184;29;20198;-85
2023/04/04 08:28:34;;;;;;;0.60;0.60;;;;;;;15.20;47.60;99066.91;4920424;23;20150;-84
2023/04/04 08:31:02;;;;;;;0.60;0.60;;;;;;;15.35;47.11;99071.53;4897416;29;20527;-84
2023/04/04 08:33:29;;;;;;;0.50;0.50;;;;;;;15.79;46.26;99076.34;4897309;29;20083;-85
2023/04/04 08:36:12;;;;;;;0.50;0.50;;;;;;;15.86;46.23;99073.34;4915092;29;20044;-84
2023/04/04 08:38:42;;;;;;;0.50;0.50;;;;;;;15.61;46.26;99069.56;4897968;29;20574;-84
2023/04/04 08:41:11;;;;;;;0.52;0.52;;;;;;;15.56;46.48;99066.84;4898880;29;20104;-82
2023/04/04 08:43:53;;;;;;;0.50;0.50;;;;;;;15.69;46.40;99077.19;4902296;29;20076;-83
2023/04/04 08:46:47;;;;;;;0.50;0.50;;;;;;;15.45;46.46;99060.63;4899640;29;20052;-84
2023/04/04 08:49:20;;;;;;;0.50;0.50;;;;;;;15.20;46.97;99071.56;4869552;29;20064;-84
2023/04/04 08:52:06;;;;;;;0.47;0.47;;;;;;;14.92;47.18;99085.41;4855410;29;20147;-85
2023/04/04 08:54:34;;;;;;;0.45;0.45;;;;;;;14.75;47.83;99084.84;4882456;29;20048;-85
2023/04/04 08:57:12;;;;;;;0.40;0.40;;;;;;;14.68;48.37;99100.59;4880938;29;20104;-83
2023/04/04 08:59:43;;;;;;;0.50;0.50;;;;;;;14.54;48.38;99088.63;4896628;29;20051;-85
2023/04/04 09:03:14;;;;;;;0.40;0.40;;;;;;;14.43;48.86;99106.75;4864464;29;20067;-83
2023/04/04 09:05:43;;;;;;;0.47;0.47;;;;;;;13.97;49.65;99099.25;4851916;29;20050;-84
2023/04/04 09:08:38;;;;;;;0.50;0.50;;;;;;;13.94;50.58;99110.63;4836298;29;20144;-84
2023/04/04 09:11:06;;;;;;;0.50;0.50;;;;;;;13.93;50.66;99110.91;4839114;29;20060;-84
2023/04/04 09:13:36;;;;;;;0.40;0.40;;;;;;;14.05;49.96;99103.34;4855277;29;20059;-83
2023/04/04 09:16:07;;;;;;;0.50;0.50;;;;;;;14.24;49.77;99112.66;4839238;29;20054;-83
2023/04/04 09:18:35;;;;;;;0.50;0.50;;;;;;;14.47;48.88;99105.94;4502675;29;10000454;-83
2023/04/04 09:21:11;;;;;;;0.60;0.60;;;;;;;14.61;48.63;99108.16;4848990;29;20045;-83
2023/04/04 09:23:42;;;;;;;0.60;0.60;;;;;;;14.59;48.62;99115.78;4848356;29;20069;-84
2023/04/04 09:26:12;;;;;;;0.50;0.50;;;;;;;14.71;48.38;99113.63;4846902;29;20145;-83
2023/04/04 09:28:40;;;;;;;0.85;0.85;;;;;;;15.46;46.41;99116.66;4846350;29;20089;-81
2023/04/04 09:31:08;;;;;;;0.77;0.77;;;;;;;17.15;43.20;99107.78;4864379;29;20057;-82
2023/04/04 09:33:37;;;;;;;0.60;0.60;;;;;;;18.41;40.39;99100.44;4857829;29;20112;-83
2023/04/04 09:36:08;;;;;;;0.50;0.50;;;;;;;17.98;40.08;99098.50;4870508;29;20080;-83
2023/04/04 09:38:39;;;;;;;0.60;0.60;;;;;;;18.35;40.21;99079.75;4867102;29;20761;-84
2023/04/04 09:41:09;;;;;;;0.60;0.60;;;;;;;18.62;38.60;99090.03;4866721;29;20428;-84
2023/04/04 09:43:38;;;;;;;0.70;0.70;;;;;;;18.73;37.55;99104.38;4894668;29;20060;-85
2023/04/04 09:46:06;;;;;;;0.70;0.70;;;;;;;19.08;37.43;99094.03;4881130;29;20048;-84
2023/04/04 09:48:36;;;;;;;0.80;0.80;;;;;;;19.44;37.16;99100.50;4902823;29;20408;-84
2023/04/04 09:51:05;;;;;;;0.50;0.50;;;;;;;20.21;36.18;99101.81;4877309;29;20101;-82
2023/04/04 09:53:35;;;;;;;0.50;0.50;;;;;;;19.28;37.31;99116.38;4897528;29;20144;-83
2023/04/04 09:56:04;;;;;;;0.50;0.50;;;;;;;18.44;37.87;99118.19;4904730;29;20106;-83
2023/04/04 09:58:40;;;;;;;0.50;0.50;;;;;;;18.05;38.86;99113.72;4865060;29;20155;-86
2023/04/04 10:01:22;;;;;;;0.80;0.80;;;;;;;19.91;35.94;99109.53;4898552;29;20052;-85
2023/04/04 10:03:53;;;;;;;0.50;0.50;;;;;;;19.60;36.21;99109.28;4911539;29;20092;-83
2023/04/04 10:06:21;;;;;;;0.50;0.50;;;;;;;19.19;36.87;99109.97;4882076;29;20479;-84
2023/04/04 10:08:48;;;;;;;0.50;0.50;;;;;;;18.62;37.53;99107.25;4895432;29;20127;-83
2023/04/04 10:11:30;;;;;;;0.50;0.50;;;;;;;18.09;38.38;99115.59;4909910;29;20055;-84
2023/04/04 10:13:58;;;;;;;0.40;0.40;;;;;;;17.25;38.90;99115.88;4903947;29;20049;-84
2023/04/04 10:16:25;;;;;;;0.43;0.43;;;;;;;16.63;39.67;99126.34;4900228;29;20495;-84
2023/04/04 10:18:53;;;;;;;0.50;0.50;;;;;;;16.68;40.41;99118.16;4915580;29;20044;-85
2023/04/04 10:21:20;;;;;;;0.40;0.40;;;;;;;16.46;41.04;99112.28;4886385;29;20070;-83
2023/04/04 10:24:08;;;;;;;0.40;0.40;;;;;;;16.49;41.24;99116.38;4885625;29;20124;-84
2023/04/04 10:26:38;;;;;;;0.40;0.40;;;;;;;16.27;40.92;99114.00;4897343;29;20052;-82
2023/04/04 10:29:24;;;;;;;0.45;0.45;;;;;;;16.20;41.14;99115.13;4906187;29;20152;-84
2023/04/04 10:31:58;;;;;;;0.40;0.40;;;;;;;16.21;41.21;99124.13;4895103;29;20493;-83
2023/04/04 10:34:35;;;;;;;0.40;0.40;;;;;;;16.29;41.50;99122.72;4899016;29;20094;-84
2023/04/04 10:37:15;;;;;;;0.43;0.43;;;;;;;15.85;41.79;99129.69;4897181;29;20063;-84
2023/04/04 10:39:50;;;;;;;0.40;0.40;;;;;;;15.45;42.49;99122.38;4907805;29;20123;-84
2023/04/04 10:42:18;;;;;;;0.40;0.40;;;;;;;15.39;42.66;99133.25;4880474;29;20064;-84
2023/04/04 10:44:46;;;;;;;0.40;0.40;;;;;;;15.42;42.75;99125.63;4880176;29;20073;-85
2023/04/04 10:47:16;;;;;;;0.50;0.50;;;;;;;15.04;42.76;99131.34;4879665;29;20057;-85
2023/04/04 10:49:44;;;;;;;0.50;0.50;;;;;;;15.11;42.83;99131.06;4906201;29;20143;-83
2023/04/04 10:52:14;;;;;;;0.45;0.45;;;;;;;15.31;42.99;99135.69;4909954;29;20112;-87
2023/04/04 10:54:45;;;;;;;0.50;0.50;;;;;;;15.25;42.91;99128.63;4891302;29;20063;-88
2023/04/04 10:57:21;;;;;;;0.50;0.50;;;;;;;14.99;43.68;99128.63;4904781;29;20112;-85
2023/04/04 11:00:05;;;;;;;0.50;0.50;;;;;;;14.99;43.35;99127.78;4880273;29;20183;-84
2023/04/04 11:02:51;;;;;;;0.40;0.40;;;;;;;14.86;43.91;99137.28;4867660;29;20132;-84
2023/04/04 11:05:36;;;;;;;0.43;0.43;;;;;;;14.74;44.05;99134.84;4875371;29;20071;-85
2023/04/04 11:08:05;;;;;;;0.45;0.45;;;;;;;14.73;44.67;99136.72;4890211;29;20057;-85
2023/04/04 11:13:36;;;;;;;0.50;0.50;;;;;;;14.64;44.12;99138.34;4916812;29;20052;-85
2023/04/04 11:16:06;;;;;;;0.50;0.50;;;;;;;14.62;44.87;99134.25;4891163;29;20701;-84
2023/04/04 11:18:44;;;;;;;0.50;0.50;;;;;;;14.83;44.55;99118.81;4903463;29;20048;-84
2023/04/04 11:31:16;;;;;;;0.50;0.50;;;;;;;14.69;44.55;99123.97;4930894;29;20071;-87
2023/04/04 11:34:05;;;;;;;0.43;0.43;;;;;;;14.59;44.39;99113.88;4946305;29;20051;-86
2023/04/04 11:36:43;;;;;;;0.50;0.50;;;;;;;14.55;44.67;99117.41;4922384;28;20051;-87
2023/04/04 11:39:30;;;;;;;0.40;0.40;;;;;;;14.57;45.14;99126.91;4950651;28;20061;-88
2023/04/04 11:42:05;;;;;;;0.50;0.50;;;;;;;14.67;45.09;99131.56;4965537;28;20042;-89
2023/04/04 11:45:03;;;;;;;0.50;0.50;;;;;;;14.72;44.72;99129.66;4970222;28;20071;-84
2023/04/04 11:47:31;;;;;;;0.50;0.50;;;;;;;14.62;44.81;99135.06;4959913;28;20050;-80
2023/04/04 11:50:07;;;;;;;0.50;0.50;;;;;;;14.76;44.30;99126.41;4970562;28;20141;-84
2023/04/04 11:52:34;;;;;;;0.50;0.50;;;;;;;14.64;44.59;99115.81;4969988;28;20054;-84
2023/04/04 11:55:01;;;;;;;0.40;0.40;;;;;;;14.84;44.80;99120.47;4953996;28;20137;-83
2023/04/04 11:57:32;;;;;;;0.50;0.50;;;;;;;15.07;44.13;99110.97;4970536;28;20864;-85
2023/04/04 12:00:02;;;;;;;0.50;0.50;;;;;;;15.27;43.84;99127.28;4970170;28;20529;-84
2023/04/04 12:02:36;;;;;;;0.40;0.40;;;;;;;15.47;42.67;99126.44;4970779;28;20058;-84
2023/04/04 12:05:08;;;;;;;0.50;0.50;;;;;;;15.71;42.16;99123.19;4938163;28;20106;-83
2023/04/04 12:07:36;;;;;;;0.50;0.50;;;;;;;15.67;41.39;99127.50;4971051;28;20556;-82
2023/04/04 12:10:03;;;;;;;0.50;0.50;;;;;;;15.75;41.30;99119.63;4948503;28;20113;-82
2023/04/04 12:12:30;;;;;;;0.50;0.50;;;;;;;16.17;40.70;99123.84;4948369;28;20047;-85
2023/04/04 12:15:41;;;;;;;0.60;0.60;;;;;;;16.93;40.48;99115.56;4958739;28;20438;-84
2023/04/04 12:18:20;;;;;;;0.60;0.60;;;;;;;18.60;38.01;99120.38;4895183;29;20151;-86